Robert Lee, Texas
Current Conditions -  °F | °C
As of 6:51 PM on Sunday 23 Nov 2014 (Local Time) from KSJT Reporting Station
Broken Clouds Broken Clouds  
Wind Chill: 67°   Ceiling: 4400
Heat Index: 67°   Visibility: 10mi
Dew Point: 28°   Wind: 15mph
Humidity: 23%   Direction: 320°NW
Pressure: 29.7"   Gusts: 25mph
Location:  31.89°N, 100.48°W
Report Text: KSJT 240051Z 32013G22KT 10SM BKN044 19/M02 A2970 RMK AO2 SLP048 T01941022
Loading
Personal Weather Stations






























Interactive Weather Map New forecast layout! Learn more

10-Day Weather Forecast

Advertisements
Track Severe Weather on mobile